createdAt,value
2022-11-24T00:03:09.458Z,66.355
2022-11-24T00:18:11.918Z,66.134
2022-11-24T00:33:14.183Z,66.229
2022-11-24T00:48:16.710Z,65.98
2022-11-24T01:03:18.887Z,65.754
2022-11-24T01:18:21.136Z,65.658
2022-11-24T01:33:23.549Z,67.027
2022-11-24T01:48:27.547Z,67.339
2022-11-24T02:03:30.579Z,67.091
2022-11-24T02:18:33.454Z,67.125
2022-11-24T02:33:36.028Z,67.834
2022-11-24T02:48:38.585Z,67.646
2022-11-24T03:03:41.130Z,68.561
2022-11-24T03:18:43.707Z,71.626
2022-11-24T03:33:46.315Z,68.945
2022-11-24T03:48:49.137Z,69.572
2022-11-24T04:03:51.988Z,71.38
2022-11-24T04:18:54.611Z,69.8
2022-11-24T04:33:57.188Z,71.038
2022-11-24T04:48:59.999Z,69.759
2022-11-24T05:04:02.557Z,71.223
2022-11-24T05:19:05.082Z,70.041
2022-11-24T05:34:07.681Z,68.595
2022-11-24T05:49:10.169Z,69.32
2022-11-24T06:04:13.339Z,68.863
2022-11-24T06:19:16.001Z,68.705
2022-11-24T06:34:18.557Z,67.759
2022-11-24T06:49:21.225Z,70.244
2022-11-24T07:04:23.774Z,70.84
2022-11-24T07:19:26.319Z,70.172
2022-11-24T07:34:29.180Z,70.128
2022-11-24T07:49:32.165Z,69.645
2022-11-24T08:04:34.897Z,69.255
2022-11-24T08:19:37.542Z,68.2
2022-11-24T08:34:39.994Z,67.705
2022-11-24T08:49:42.772Z,67.654
2022-11-24T09:04:46.237Z,68.856
2022-11-24T09:19:48.764Z,69.577
2022-11-24T09:34:51.084Z,69.293
2022-11-24T09:49:53.327Z,71.529
2022-11-24T10:04:55.629Z,70.72
2022-11-24T10:19:57.859Z,69.205
2022-11-24T10:35:00.218Z,68.42
2022-11-24T10:50:02.934Z,68.315
2022-11-24T11:05:06.437Z,67.665
2022-11-24T11:20:10.064Z,67.625
2022-11-24T11:35:14.697Z,67.075
2022-11-24T11:50:17.755Z,67.01
2022-11-24T12:05:21.843Z,66.768
2022-11-24T12:20:24.428Z,67.652
2022-11-24T12:35:27.021Z,67.52
2022-11-24T12:50:29.546Z,66.789
2022-11-24T13:05:31.793Z,66.832
2022-11-24T13:20:34.056Z,67.163
2022-11-24T13:35:36.390Z,67.645
2022-11-24T13:50:38.830Z,67.645
2022-11-24T14:05:41.336Z,69.536
2022-11-24T14:20:43.591Z,70.205
2022-11-24T14:35:45.856Z,70.009
2022-11-24T14:50:48.086Z,68
2022-11-24T15:05:50.356Z,68.332
2022-11-24T15:20:52.582Z,69.321
2022-11-24T15:35:54.894Z,72.775
2022-11-24T15:50:57.286Z,73.096
2022-11-24T16:05:59.529Z,72.248
2022-11-24T16:21:01.806Z,70.192
2022-11-24T16:36:04.235Z,68.256
2022-11-24T16:51:06.602Z,68.22
2022-11-24T17:06:08.876Z,67.771
2022-11-24T17:21:11.099Z,67.445
2022-11-24T17:36:13.498Z,67.071
2022-11-24T17:51:15.949Z,67.271
2022-11-24T18:06:18.211Z,66.779
2022-11-24T18:21:20.420Z,67.368
2022-11-24T18:36:25.766Z,68.471
2022-11-24T18:51:32.402Z,67.925
2022-11-24T19:06:34.795Z,67.079
2022-11-24T19:21:37.122Z,67.685
2022-11-24T19:36:39.434Z,66.39
2022-11-24T19:51:41.667Z,63.444
2022-11-24T20:06:43.886Z,61.372
2022-11-24T20:21:46.620Z,61.895
2022-11-24T20:36:48.869Z,60.85
2022-11-24T20:51:51.153Z,60.237
2022-11-24T21:06:53.372Z,61.34
2022-11-24T21:21:55.601Z,60.692
2022-11-24T21:36:57.806Z,60.29
2022-11-24T21:52:00.187Z,59.961
2022-11-24T22:07:02.437Z,60.991
2022-11-24T22:22:04.675Z,62.137
2022-11-24T22:37:06.991Z,61.474
2022-11-24T22:52:09.255Z,62.748
2022-11-24T23:07:11.542Z,63.314
2022-11-24T23:22:13.976Z,64.25
2022-11-24T23:37:16.452Z,64.616
2022-11-24T23:52:18.903Z,63.634
